Time;durP1;ratioP1;P1;durP2;ratioP2;P2;SDS_P1;SDS_P2;PMS_P1;PMS_P2;Temp;Humidity;BMP_temperature;BMP_pressure;BME280_temperature;BME280_humidity;BME280_pressure;Samples;Min_cycle;Max_cycle;Signal;HPM_P1;HPM_P2
2022/03/31 00:02:15;;;;;;;5.60;1.40;;;;;;;-4.13;68.83;99257.70;105112;1271;59713;-72
2022/03/31 00:05:05;;;;;;;5.80;1.60;;;;;;;-4.12;68.83;99261.14;104910;1271;73200;-72
2022/03/31 00:07:57;;;;;;;7.60;2.00;;;;;;;-4.11;68.66;99262.69;103445;1271;1003805;-73
2022/03/31 00:10:52;;;;;;;7.00;2.00;;;;;;;-4.10;68.75;99259.36;104911;1271;71869;-73
2022/03/31 00:13:42;;;;;;;6.80;1.70;;;;;;;-4.07;69.00;99260.15;105154;1271;59654;-72
2022/03/31 00:16:30;;;;;;;7.00;1.90;;;;;;;-4.05;68.69;99263.38;105082;1271;60395;-71
2022/03/31 00:19:19;;;;;;;6.50;1.80;;;;;;;-4.05;68.73;99263.56;104200;1271;1003909;-71
2022/03/31 00:22:15;;;;;;;6.90;1.50;;;;;;;-4.05;68.57;99265.79;104806;1271;68051;-71
2022/03/31 00:25:06;;;;;;;5.90;1.20;;;;;;;-4.04;69.05;99264.91;104297;1271;1003313;-72
2022/03/31 00:27:57;;;;;;;5.50;1.10;;;;;;;-4.03;69.27;99266.96;104226;1273;1002978;-73
2022/03/31 00:30:46;;;;;;;5.70;1.20;;;;;;;-4.01;69.55;99268.96;105124;1271;59669;-71
2022/03/31 00:33:35;;;;;;;4.70;1.30;;;;;;;-4.00;69.33;99265.48;104878;1271;73779;-71
2022/03/31 00:36:23;;;;;;;6.30;1.40;;;;;;;-4.00;68.92;99260.27;104158;1271;1003710;-71
2022/03/31 00:39:31;;;;;;;5.10;1.20;;;;;;;-4.00;69.04;99260.77;104907;1271;73062;-71
2022/03/31 00:42:21;;;;;;;5.20;1.30;;;;;;;-4.00;68.79;99259.92;105146;1271;59654;-71
2022/03/31 00:45:27;;;;;;;5.10;1.30;;;;;;;-4.01;69.06;99258.39;104879;1271;59652;-71
2022/03/31 00:48:19;;;;;;;5.90;1.30;;;;;;;-3.99;69.21;99260.42;104531;1271;1002684;-73
2022/03/31 00:51:10;;;;;;;4.90;1.00;;;;;;;-3.99;69.23;99259.20;105037;1271;69846;-72
2022/03/31 00:53:59;;;;;;;4.60;1.20;;;;;;;-4.00;68.82;99259.23;104942;1271;71498;-73
2022/03/31 00:56:50;;;;;;;3.60;1.00;;;;;;;-4.00;68.80;99260.61;104927;1271;59637;-73
2022/03/31 00:59:39;;;;;;;5.20;1.30;;;;;;;-4.01;69.18;99256.67;104934;1271;60522;-74
2022/03/31 01:02:32;;;;;;;5.80;1.40;;;;;;;-4.02;69.01;99257.41;104916;1272;73292;-73
2022/03/31 01:05:21;;;;;;;4.80;1.30;;;;;;;-4.03;69.27;99256.02;105095;1271;66523;-73
2022/03/31 01:08:10;;;;;;;4.80;1.30;;;;;;;-4.03;69.36;99256.38;104860;1271;71849;-73
2022/03/31 01:11:00;;;;;;;7.10;1.60;;;;;;;-4.03;69.18;99256.91;104839;1271;60276;-72
2022/03/31 01:13:50;;;;;;;5.00;1.50;;;;;;;-4.02;69.50;99255.66;104877;1271;60448;-74
2022/03/31 01:16:40;;;;;;;5.30;1.30;;;;;;;-4.01;69.57;99255.10;105172;1271;71527;-73
2022/03/31 01:19:32;;;;;;;5.00;1.20;;;;;;;-3.99;69.52;99253.84;105154;1271;67348;-74
2022/03/31 01:22:27;;;;;;;4.10;1.20;;;;;;;-3.97;69.44;99252.02;104856;1271;71759;-73
2022/03/31 01:25:17;;;;;;;5.40;1.20;;;;;;;-3.97;69.74;99252.73;105043;1271;59628;-73
2022/03/31 01:28:07;;;;;;;6.00;1.30;;;;;;;-3.97;69.64;99253.77;105075;1271;59719;-72
2022/03/31 01:30:57;;;;;;;6.70;1.70;;;;;;;-3.99;69.45;99255.38;104135;1271;1005446;-72
2022/03/31 01:33:45;;;;;;;4.90;1.30;;;;;;;-4.01;69.47;99251.64;104297;1271;1003616;-72
2022/03/31 01:36:37;;;;;;;4.90;1.20;;;;;;;-4.02;69.12;99251.66;104923;1271;73127;-73
2022/03/31 01:39:26;;;;;;;5.80;1.40;;;;;;;-4.04;69.06;99253.11;104917;1272;59699;-72
2022/03/31 01:42:15;;;;;;;5.30;1.10;;;;;;;-4.07;68.96;99255.27;104841;1271;59584;-73
2022/03/31 01:45:07;;;;;;;4.00;1.40;;;;;;;-4.07;68.65;99254.26;104836;1271;71049;-72
2022/03/31 01:47:58;;;;;;;4.20;1.00;;;;;;;-4.09;68.51;99257.95;104945;1271;68142;-73
2022/03/31 01:50:47;;;;;;;3.80;1.00;;;;;;;-4.11;68.52;99256.64;105112;1271;71962;-73
2022/03/31 01:53:39;;;;;;;4.20;1.20;;;;;;;-4.14;68.20;99253.05;104938;1271;59701;-72
2022/03/31 01:56:27;;;;;;;4.00;1.00;;;;;;;-4.14;68.41;99253.94;104975;1271;60734;-72
2022/03/31 01:59:16;;;;;;;5.10;1.10;;;;;;;-4.15;68.13;99249.30;104875;1271;73709;-74
2022/03/31 02:02:11;;;;;;;5.60;1.00;;;;;;;-4.15;68.35;99250.67;104855;1271;68172;-75
2022/03/31 02:05:01;;;;;;;3.90;1.00;;;;;;;-4.17;68.28;99250.20;104199;1271;1003914;-74
2022/03/31 02:07:54;;;;;;;5.00;1.10;;;;;;;-4.19;68.31;99242.48;104303;1271;1003645;-75
2022/03/31 02:10:43;;;;;;;3.60;0.90;;;;;;;-4.20;68.21;99243.38;105128;1271;59720;-75
2022/03/31 02:13:32;;;;;;;3.90;0.80;;;;;;;-4.19;68.16;99240.74;105087;1271;73653;-76
2022/03/31 02:16:21;;;;;;;4.10;1.10;;;;;;;-4.18;68.37;99245.73;105140;1271;68296;-75
2022/03/31 02:19:11;;;;;;;3.90;1.00;;;;;;;-4.18;68.42;99246.45;104957;1271;71675;-75
2022/03/31 02:22:05;;;;;;;4.00;1.00;;;;;;;-4.18;68.43;99243.48;104295;1271;1003280;-75
2022/03/31 02:24:56;;;;;;;3.40;0.90;;;;;;;-4.18;68.35;99247.65;105179;1271;59711;-75
2022/03/31 02:27:49;;;;;;;3.70;0.90;;;;;;;-4.19;68.33;99246.48;104376;1271;1003426;-72
2022/03/31 02:30:38;;;;;;;3.80;0.90;;;;;;;-4.20;68.29;99249.44;105141;1271;67409;-73
2022/03/31 02:33:30;;;;;;;3.10;0.80;;;;;;;-4.21;68.45;99249.31;104870;1271;71419;-74
2022/03/31 02:36:22;;;;;;;3.90;1.00;;;;;;;-4.22;68.21;99248.47;104881;1271;59773;-74
2022/03/31 02:39:12;;;;;;;3.60;0.90;;;;;;;-4.24;68.22;99243.17;104972;1271;60965;-70
2022/03/31 02:42:01;;;;;;;3.80;1.10;;;;;;;-4.26;68.14;99243.90;104506;1271;1003035;-71
2022/03/31 02:44:50;;;;;;;4.10;0.90;;;;;;;-4.26;68.17;99245.31;104823;1271;68300;-73
2022/03/31 02:47:44;;;;;;;3.70;0.90;;;;;;;-4.27;67.97;99248.61;104837;1271;71362;-73
2022/03/31 02:50:33;;;;;;;4.90;1.10;;;;;;;-4.29;68.02;99250.74;104872;1271;59702;-74
2022/03/31 02:56:30;;;;;;;4.30;0.90;;;;;;;-4.31;68.43;99248.19;104875;1271;73857;-75
2022/03/31 02:59:18;;;;;;;3.60;0.90;;;;;;;-4.30;68.29;99250.95;104877;1271;68026;-75
2022/03/31 03:02:07;;;;;;;4.30;1.00;;;;;;;-4.30;68.19;99249.91;104899;1271;71318;-74
2022/03/31 03:04:56;;;;;;;4.30;1.10;;;;;;;-4.30;67.92;99250.27;105031;1270;59682;-73
2022/03/31 03:07:44;;;;;;;4.30;1.10;;;;;;;-4.30;68.05;99249.23;104901;1271;59788;-75
2022/03/31 03:10:33;;;;;;;3.50;0.90;;;;;;;-4.29;67.59;99248.52;104853;1271;73805;-74
2022/03/31 03:13:22;;;;;;;4.20;0.90;;;;;;;-4.29;67.62;99249.71;104229;1271;1003538;-73
2022/03/31 03:16:11;;;;;;;4.10;1.20;;;;;;;-4.28;67.40;99250.55;105030;1271;70437;-73
2022/03/31 03:18:59;;;;;;;4.60;1.10;;;;;;;-4.26;67.35;99250.48;104841;1272;59693;-73
2022/03/31 03:21:48;;;;;;;3.50;0.90;;;;;;;-4.25;67.15;99245.61;105031;1271;59652;-73
2022/03/31 03:24:37;;;;;;;3.60;1.00;;;;;;;-4.25;67.51;99248.75;104882;1271;72419;-73
2022/03/31 03:27:26;;;;;;;4.50;1.10;;;;;;;-4.25;67.53;99246.64;104012;1271;1003092;-73
2022/03/31 03:30:18;;;;;;;5.20;1.00;;;;;;;-4.26;67.47;99247.36;104191;1271;1003533;-73
2022/03/31 03:33:06;;;;;;;4.40;1.10;;;;;;;-4.26;67.31;99250.83;104141;1271;1002954;-74
2022/03/31 03:35:55;;;;;;;5.30;1.30;;;;;;;-4.28;67.34;99248.11;104876;1271;59722;-74
2022/03/31 03:38:49;;;;;;;6.00;1.30;;;;;;;-4.29;67.58;99251.10;104150;1271;1003416;-74
2022/03/31 03:41:38;;;;;;;4.70;1.00;;;;;;;-4.30;67.88;99251.13;106195;1271;68521;-74
2022/03/31 03:44:30;;;;;;;7.90;1.40;;;;;;;-4.29;68.03;99247.27;105340;1271;71456;-74
2022/03/31 03:47:18;;;;;;;5.20;1.30;;;;;;;-4.27;68.23;99248.77;105150;1271;59749;-74
2022/03/31 03:50:07;;;;;;;6.70;1.50;;;;;;;-4.26;68.70;99247.02;105294;1271;59778;-76
2022/03/31 03:52:56;;;;;;;12.50;2.00;;;;;;;-4.24;68.94;99246.43;105039;1271;73687;-74
2022/03/31 03:55:44;;;;;;;14.00;2.10;;;;;;;-4.20;69.26;99245.27;105174;1271;68712;-74
2022/03/31 03:58:33;;;;;;;9.20;1.90;;;;;;;-4.17;69.09;99248.80;105128;1271;71877;-74
2022/03/31 04:01:22;;;;;;;8.80;1.90;;;;;;;-4.14;69.25;99250.63;104445;1271;1003573;-74
2022/03/31 04:04:12;;;;;;;7.10;1.50;;;;;;;-4.09;69.19;99253.78;105074;1272;59566;-76
2022/03/31 04:07:01;;;;;;;5.20;1.50;;;;;;;-4.05;69.60;99255.42;105180;1271;72456;-76
2022/03/31 04:09:50;;;;;;;6.10;1.50;;;;;;;-4.00;69.25;99258.88;104363;1271;1003562;-75
2022/03/31 04:12:39;;;;;;;6.50;1.40;;;;;;;-3.94;69.27;99261.30;105205;1271;73153;-74
2022/03/31 04:15:28;;;;;;;5.90;1.70;;;;;;;-3.89;69.14;99263.91;105773;1271;59654;-75
2022/03/31 04:18:16;;;;;;;5.80;1.50;;;;;;;-3.85;68.90;99261.36;105051;1271;59835;-76
2022/03/31 04:21:10;;;;;;;12.60;2.10;;;;;;;-3.82;68.86;99260.08;105120;1271;73376;-75
2022/03/31 04:23:59;;;;;;;19.30;3.10;;;;;;;-3.80;68.94;99253.43;105141;1271;67942;-74
2022/03/31 04:26:47;;;;;;;19.30;3.30;;;;;;;-3.80;68.66;99254.60;104282;1271;1003023;-76
2022/03/31 04:29:36;;;;;;;14.40;2.90;;;;;;;-3.78;68.67;99260.47;105084;1271;59691;-74
2022/03/31 04:32:25;;;;;;;19.30;2.80;;;;;;;-3.78;68.73;99262.20;104806;1271;60014;-74
2022/03/31 04:35:15;;;;;;;11.30;2.80;;;;;;;-3.77;68.65;99263.21;105057;1271;72263;-75
2022/03/31 04:38:04;;;;;;;14.90;2.50;;;;;;;-3.77;68.85;99264.58;105288;1272;66112;-75
2022/03/31 04:40:53;;;;;;;10.70;2.30;;;;;;;-3.75;69.06;99269.55;105258;1271;71676;-74
2022/03/31 04:43:41;;;;;;;5.30;1.40;;;;;;;-3.71;69.22;99268.90;104487;1271;1003488;-75
2022/03/31 04:46:30;;;;;;;6.90;2.00;;;;;;;-3.66;69.04;99267.36;105055;1271;60645;-76
2022/03/31 04:49:18;;;;;;;5.30;1.40;;;;;;;-3.61;68.45;99270.66;105225;1271;73640;-77
2022/03/31 04:52:07;;;;;;;8.10;1.80;;;;;;;-3.54;67.42;99272.52;105215;1271;68527;-75
2022/03/31 04:54:57;;;;;;;9.30;2.10;;;;;;;-3.47;66.80;99278.20;105408;1271;71660;-74
2022/03/31 04:57:48;;;;;;;7.50;1.70;;;;;;;-3.42;66.67;99278.36;105046;1271;59734;-74
2022/03/31 05:00:37;;;;;;;12.90;2.20;;;;;;;-3.35;65.80;99280.92;104468;1271;1003107;-74
2022/03/31 05:03:27;;;;;;;16.90;3.30;;;;;;;-3.28;65.29;99279.48;105138;1272;73026;-73
2022/03/31 05:06:16;;;;;;;16.20;3.10;;;;;;;-3.21;64.81;99278.38;105272;1271;65918;-72
2022/03/31 05:09:04;;;;;;;14.40;2.90;;;;;;;-3.15;64.04;99277.99;105148;1271;72921;-71
2022/03/31 05:11:53;;;;;;;15.30;2.90;;;;;;;-3.07;63.64;99280.15;105006;1271;59673;-72
2022/03/31 05:14:42;;;;;;;16.40;3.50;;;;;;;-3.00;62.98;99286.67;104605;1271;1003452;-73
2022/03/31 05:17:34;;;;;;;17.00;3.70;;;;;;;-2.91;62.01;99283.94;105604;1272;71884;-73
2022/03/31 05:20:30;;;;;;;17.10;3.40;;;;;;;-2.80;61.75;99290.52;104979;1272;66844;-73
2022/03/31 05:23:19;;;;;;;15.00;3.30;;;;;;;-2.71;61.63;99293.67;105081;1271;71548;-72
2022/03/31 05:26:07;;;;;;;16.60;3.20;;;;;;;-2.63;61.19;99294.77;105164;1271;59710;-73
2022/03/31 05:28:56;;;;;;;15.80;2.60;;;;;;;-2.53;60.68;99292.13;105190;1271;59676;-73
2022/03/31 05:31:46;;;;;;;11.40;2.60;;;;;;;-2.43;60.25;99294.05;104923;1271;72292;-73
2022/03/31 05:34:35;;;;;;;11.00;2.50;;;;;;;-2.34;59.92;99294.25;105118;1271;67253;-73
2022/03/31 05:37:24;;;;;;;11.40;2.50;;;;;;;-2.24;59.88;99301.17;105030;1271;71362;-72
2022/03/31 05:40:16;;;;;;;12.70;2.30;;;;;;;-2.13;59.68;99301.81;105076;1271;59973;-71
2022/03/31 05:43:05;;;;;;;13.30;2.00;;;;;;;-2.01;59.89;99302.23;104434;1271;1002897;-72
2022/03/31 05:45:57;;;;;;;11.10;2.40;;;;;;;-1.90;59.25;99298.66;105300;1271;73862;-74
2022/03/31 05:48:45;;;;;;;7.40;1.90;;;;;;;-1.77;58.56;99298.20;104606;1273;1002511;-73
2022/03/31 05:51:36;;;;;;;9.80;2.00;;;;;;;-1.63;58.34;99301.46;105227;1272;74118;-73
2022/03/31 05:54:26;;;;;;;8.20;1.70;;;;;;;-1.51;57.76;99298.55;105457;1272;59754;-73
2022/03/31 05:57:17;;;;;;;7.60;1.80;;;;;;;-1.37;58.16;99300.91;105271;1272;61197;-73
2022/03/31 06:00:17;;;;;;;10.60;2.40;;;;;;;-1.21;57.60;99306.02;105235;1273;73429;-73
2022/03/31 06:03:09;;;;;;;10.10;2.40;;;;;;;-1.03;57.89;99311.86;105497;1273;67779;-73
2022/03/31 06:05:58;;;;;;;8.70;1.80;;;;;;;-0.87;57.44;99307.39;105127;1273;70773;-73
2022/03/31 06:08:48;;;;;;;7.70;1.80;;;;;;;-0.65;57.50;99306.10;105054;1273;59755;-74
2022/03/31 06:11:39;;;;;;;8.90;2.40;;;;;;;-0.43;56.90;99311.42;105284;1273;60842;-73
2022/03/31 06:14:28;;;;;;;7.80;2.30;;;;;;;-0.29;56.33;99313.21;105392;1273;71946;-74
2022/03/31 06:17:17;;;;;;;13.40;3.20;;;;;;;-0.09;55.96;99316.88;104955;1273;67624;-74
2022/03/31 06:20:06;;;;;;;11.00;3.00;;;;;;;0.15;55.46;99315.91;105203;1273;72991;-74
2022/03/31 06:22:54;;;;;;;9.20;2.60;;;;;;;0.37;54.63;99317.52;105080;1272;59773;-75
2022/03/31 06:25:44;;;;;;;8.90;2.00;;;;;;;0.65;53.10;99313.73;105085;1273;59953;-76
2022/03/31 06:28:33;;;;;;;6.70;1.80;;;;;;;0.95;52.46;99312.94;105227;1273;74093;-74
2022/03/31 06:31:23;;;;;;;7.20;1.50;;;;;;;1.39;51.54;99316.31;105123;1272;68180;-74
2022/03/31 06:34:12;;;;;;;6.40;1.60;;;;;;;2.84;49.02;99315.05;104916;1273;72017;-74
2022/03/31 06:37:00;;;;;;;8.50;2.00;;;;;;;4.14;46.56;99312.73;105188;1273;59745;-74
2022/03/31 06:39:49;;;;;;;6.00;1.70;;;;;;;6.44;42.11;99299.69;104941;1273;59722;-75
2022/03/31 06:42:37;;;;;;;9.60;1.60;;;;;;;8.74;37.53;99293.36;105048;1273;72233;-75
2022/03/31 06:45:26;;;;;;;6.70;1.40;;;;;;;10.48;32.43;99285.60;105031;1271;66692;-74
2022/03/31 06:48:16;;;;;;;5.90;1.70;;;;;;;10.33;31.30;99286.96;105198;1271;71916;-74
2022/03/31 06:51:05;;;;;;;6.10;2.00;;;;;;;10.37;30.64;99291.25;105143;1271;60043;-74
2022/03/31 06:53:55;;;;;;;10.10;4.60;;;;;;;11.49;29.49;99291.52;104928;1271;60008;-75
2022/03/31 06:56:49;;;;;;;7.20;2.20;;;;;;;12.54;27.91;99285.61;104620;1271;1003052;-75
2022/03/31 06:59:41;;;;;;;6.60;1.70;;;;;;;12.86;26.43;99283.34;105031;1271;67872;-75
2022/03/31 07:02:29;;;;;;;6.50;1.60;;;;;;;12.68;25.92;99282.45;105068;1272;73470;-75
2022/03/31 07:05:17;;;;;;;7.60;1.90;;;;;;;11.97;26.64;99296.92;104939;1271;59653;-74
2022/03/31 07:08:06;;;;;;;7.00;2.00;;;;;;;13.00;25.92;99293.35;105039;1271;60392;-76
2022/03/31 07:10:55;;;;;;;5.80;1.50;;;;;;;13.82;24.61;99290.27;105107;1271;72239;-77
2022/03/31 07:13:43;;;;;;;5.60;1.60;;;;;;;14.97;24.38;99289.56;104890;1271;66886;-76
2022/03/31 07:16:31;;;;;;;5.70;1.60;;;;;;;15.86;22.98;99289.32;105011;1271;72276;-76
2022/03/31 07:19:20;;;;;;;6.20;1.60;;;;;;;15.90;22.30;99284.98;105052;1271;59697;-75
2022/03/31 07:22:08;;;;;;;6.40;1.90;;;;;;;14.93;23.25;99288.63;105965;1271;60405;-74
2022/03/31 07:24:56;;;;;;;7.40;1.80;;;;;;;15.11;23.34;99286.43;105249;1271;73634;-75
2022/03/31 07:27:45;;;;;;;6.00;1.70;;;;;;;14.90;23.40;99288.60;105226;1271;68754;-75
2022/03/31 07:30:33;;;;;;;7.60;1.40;;;;;;;15.12;22.55;99282.95;105105;1272;73049;-75
2022/03/31 07:33:23;;;;;;;5.90;1.40;;;;;;;15.71;22.45;99292.27;105141;1271;60064;-75
2022/03/31 07:36:12;;;;;;;5.40;1.60;;;;;;;16.16;21.52;99293.34;105190;1271;59646;-75
2022/03/31 07:39:01;;;;;;;7.10;1.70;;;;;;;16.57;21.69;99286.62;105679;1271;73385;-75
2022/03/31 07:41:51;;;;;;;6.10;1.50;;;;;;;17.02;20.24;99285.64;105065;1271;66684;-75
2022/03/31 07:44:40;;;;;;;5.10;1.50;;;;;;;17.57;20.31;99288.84;105276;1271;71899;-75
2022/03/31 07:47:34;;;;;;;5.30;1.30;;;;;;;17.69;19.63;99284.31;105136;1271;59781;-75
2022/03/31 07:50:22;;;;;;;6.20;1.20;;;;;;;17.57;19.27;99287.23;105126;1273;59605;-76
2022/03/31 07:53:12;;;;;;;5.80;1.40;;;;;;;17.91;19.31;99289.11;105328;1271;73295;-75
2022/03/31 07:56:03;;;;;;;5.30;1.40;;;;;;;18.29;18.73;99287.55;105429;1271;65958;-74
2022/03/31 07:58:51;;;;;;;7.10;1.40;;;;;;;18.39;18.21;99286.21;105275;1271;71939;-76
2022/03/31 08:01:40;;;;;;;7.80;1.40;;;;;;;18.47;17.69;99291.63;105063;1271;59786;-75
2022/03/31 08:04:29;;;;;;;6.80;1.50;;;;;;;18.20;17.37;99286.66;105060;1271;59749;-75
2022/03/31 08:07:17;;;;;;;6.80;1.30;;;;;;;18.29;17.80;99297.13;105111;1271;73429;-75
2022/03/31 08:10:08;;;;;;;6.40;1.60;;;;;;;18.45;18.05;99292.25;105351;1271;68270;-75
2022/03/31 08:12:56;;;;;;;7.90;1.70;;;;;;;18.14;18.15;99288.84;105126;1271;73034;-74
2022/03/31 08:15:45;;;;;;;13.00;3.90;;;;;;;17.96;18.39;99289.73;105111;1271;59656;-74
2022/03/31 08:18:34;;;;;;;11.70;3.40;;;;;;;16.85;18.88;99294.00;105073;1271;60697;-74
2022/03/31 08:21:23;;;;;;;8.90;2.30;;;;;;;16.75;19.41;99296.21;105270;1272;73318;-74
2022/03/31 08:24:13;;;;;;;7.50;2.20;;;;;;;16.98;18.81;99301.08;105001;1272;68276;-75
2022/03/31 08:27:03;;;;;;;6.20;1.80;;;;;;;17.50;18.37;99300.49;105050;1271;71911;-75
2022/03/31 08:29:51;;;;;;;7.30;1.80;;;;;;;17.92;18.36;99301.02;105271;1272;59715;-74
2022/03/31 08:32:43;;;;;;;8.00;1.60;;;;;;;18.31;17.88;99302.44;105122;1271;60733;-75
2022/03/31 08:35:37;;;;;;;6.30;1.50;;;;;;;18.87;17.62;99297.00;105147;1271;73530;-75
2022/03/31 08:38:25;;;;;;;6.40;1.50;;;;;;;19.10;17.28;99295.36;105155;1271;68374;-76
2022/03/31 08:41:14;;;;;;;7.00;1.70;;;;;;;19.05;17.10;99295.98;105051;1271;71812;-76
2022/03/31 08:44:03;;;;;;;5.70;1.50;;;;;;;18.11;17.13;99296.35;105006;1272;59790;-75
2022/03/31 08:46:52;;;;;;;6.00;1.40;;;;;;;18.07;17.72;99302.58;105367;1271;60916;-75
2022/03/31 08:49:40;;;;;;;8.50;1.80;;;;;;;17.24;18.91;99305.45;105062;1272;71987;-75
2022/03/31 08:52:29;;;;;;;7.70;1.70;;;;;;;17.83;18.94;99308.83;105163;1271;66709;-75
2022/03/31 08:55:18;;;;;;;7.20;1.80;;;;;;;18.19;18.77;99308.52;105111;1271;73115;-75
2022/03/31 08:58:07;;;;;;;6.90;1.90;;;;;;;18.71;18.31;99301.66;105123;1271;59765;-75
2022/03/31 09:00:57;;;;;;;8.00;1.60;;;;;;;18.98;17.78;99304.39;105150;1271;59857;-76
2022/03/31 09:03:45;;;;;;;6.40;1.50;;;;;;;18.32;17.75;99306.89;104988;1271;73377;-75
2022/03/31 09:07:08;;;;;;;5.50;1.40;;;;;;;18.29;17.74;99304.65;104790;1273;68500;-75
2022/03/31 09:09:57;;;;;;;8.50;1.70;;;;;;;18.77;17.94;99299.48;105057;1273;71614;-75
2022/03/31 09:12:46;;;;;;;6.90;1.50;;;;;;;18.65;17.96;99297.20;105302;1271;59729;-75
2022/03/31 09:16:11;;;;;;;6.70;1.50;;;;;;;18.39;17.65;99292.27;105073;1271;60714;-75
2022/03/31 09:19:15;;;;;;;5.60;1.50;;;;;;;17.77;17.33;99301.40;105107;1271;73488;-74
2022/03/31 09:22:05;;;;;;;6.80;1.80;;;;;;;17.89;17.99;99304.20;105003;1271;68349;-75
2022/03/31 09:25:03;;;;;;;7.80;1.50;;;;;;;17.97;17.67;99299.52;105067;1271;73584;-75
2022/03/31 09:27:51;;;;;;;7.40;1.70;;;;;;;18.00;17.15;99302.71;105050;1273;59659;-75
2022/03/31 09:30:46;;;;;;;6.70;1.70;;;;;;;18.12;17.82;99304.48;104898;1271;60732;-74
2022/03/31 09:33:37;;;;;;;5.80;1.90;;;;;;;18.45;18.51;99302.00;105119;1271;72428;-75
2022/03/31 09:36:26;;;;;;;7.00;1.80;;;;;;;18.75;18.34;99301.08;105085;1273;68419;-75
2022/03/31 09:39:17;;;;;;;6.10;1.80;;;;;;;19.10;17.25;99300.28;105072;1272;73292;-75
2022/03/31 09:42:14;;;;;;;5.70;1.60;;;;;;;18.75;17.19;99300.55;104921;1271;59760;-75
2022/03/31 09:45:03;;;;;;;7.10;1.80;;;;;;;16.99;18.22;99306.73;105259;1272;59852;-74
2022/03/31 09:47:52;;;;;;;5.60;1.80;;;;;;;16.69;19.07;99302.71;105101;1270;73339;-74
2022/03/31 09:50:42;;;;;;;6.90;2.20;;;;;;;17.10;19.24;99302.41;105446;1271;68068;-75
2022/03/31 09:53:32;;;;;;;5.70;1.70;;;;;;;17.36;18.66;99295.65;105914;1273;71488;-76
2022/03/31 09:56:27;;;;;;;8.10;2.40;;;;;;;17.70;18.53;99290.20;105205;1271;59706;-75
2022/03/31 09:59:16;;;;;;;6.70;2.10;;;;;;;18.03;18.29;99296.45;105085;1272;60431;-75
2022/03/31 10:02:15;;;;;;;7.10;2.00;;;;;;;18.42;17.64;99292.23;105412;1273;73512;-75
2022/03/31 10:05:05;;;;;;;7.30;2.00;;;;;;;18.60;17.66;99289.69;105164;1273;68084;-76
2022/03/31 10:07:55;;;;;;;6.90;2.00;;;;;;;18.51;17.67;99286.36;105061;1273;73597;-76
2022/03/31 10:10:46;;;;;;;9.70;2.40;;;;;;;17.29;18.57;99283.86;105308;1272;59761;-74
2022/03/31 10:13:57;;;;;;;7.70;2.50;;;;;;;17.52;18.34;99292.52;105171;1271;60411;-76
2022/03/31 10:17:10;;;;;;;6.50;2.20;;;;;;;17.28;18.34;99292.05;105268;1271;73607;-75
2022/03/31 10:20:14;;;;;;;7.40;2.80;;;;;;;16.89;18.93;99290.33;105321;1271;68394;-75
2022/03/31 10:26:27;;;;;;;8.10;2.60;;;;;;;16.83;19.17;99298.92;105407;1271;59794;-74
2022/03/31 10:29:16;;;;;;;7.80;2.70;;;;;;;15.77;20.37;99301.05;105042;1273;60277;-74
2022/03/31 10:32:21;;;;;;;8.50;2.60;;;;;;;15.66;20.51;99304.81;104979;1272;72200;-74
2022/03/31 10:35:31;;;;;;;9.80;2.60;;;;;;;15.80;20.57;99301.45;105001;1271;68040;-75
2022/03/31 10:38:23;;;;;;;9.40;2.90;;;;;;;15.16;20.66;99297.59;105123;1271;73200;-75
2022/03/31 10:41:13;;;;;;;7.70;2.90;;;;;;;15.23;21.16;99297.45;105025;1271;59676;-75
2022/03/31 10:44:14;;;;;;;6.90;2.60;;;;;;;14.03;22.11;99300.77;104933;1272;60302;-75
2022/03/31 10:47:11;;;;;;;9.10;2.60;;;;;;;14.23;22.83;99296.46;105041;1271;73126;-75
2022/03/31 10:50:01;;;;;;;9.10;2.70;;;;;;;14.78;21.25;99291.33;105213;1271;68317;-75
2022/03/31 10:53:03;;;;;;;7.60;2.80;;;;;;;15.31;20.95;99288.39;104880;1272;72626;-76
2022/03/31 10:55:58;;;;;;;7.60;2.50;;;;;;;15.18;20.94;99284.59;104992;1273;59763;-75
2022/03/31 10:58:57;;;;;;;7.40;2.60;;;;;;;15.34;21.02;99287.73;104999;1272;60230;-74
2022/03/31 11:01:52;;;;;;;7.10;3.10;;;;;;;15.74;20.25;99281.89;105179;1271;73634;-75
2022/03/31 11:04:52;;;;;;;7.30;3.10;;;;;;;16.04;20.07;99285.34;105132;1271;67889;-75
2022/03/31 11:07:41;;;;;;;6.70;2.70;;;;;;;16.31;18.81;99278.02;105091;1271;73043;-75
2022/03/31 11:10:45;;;;;;;7.70;3.00;;;;;;;16.07;18.26;99279.46;104879;1273;59713;-75
2022/03/31 11:13:35;;;;;;;6.40;2.60;;;;;;;15.89;19.47;99283.25;105201;1273;59551;-75
2022/03/31 11:16:38;;;;;;;7.70;3.20;;;;;;;16.06;20.02;99281.05;105094;1271;73022;-75
2022/03/31 11:19:36;;;;;;;6.80;2.60;;;;;;;16.18;19.50;99278.29;105097;1272;67853;-75
2022/03/31 11:22:27;;;;;;;8.60;3.20;;;;;;;16.34;19.39;99286.48;105242;1272;71788;-75
2022/03/31 11:25:17;;;;;;;8.40;2.40;;;;;;;16.15;18.19;99287.58;105264;1271;59748;-74
2022/03/31 11:28:13;;;;;;;6.90;2.60;;;;;;;15.97;17.95;99287.18;105592;1273;60392;-75
2022/03/31 11:31:06;;;;;;;8.90;2.90;;;;;;;15.77;18.13;99294.45;105173;1271;71489;-75
2022/03/31 11:33:58;;;;;;;6.80;2.50;;;;;;;15.58;18.67;99290.85;105493;1271;67258;-74
2022/03/31 11:36:51;;;;;;;7.30;2.90;;;;;;;15.56;18.79;99291.15;104985;1272;72754;-74
2022/03/31 11:39:46;;;;;;;6.80;2.80;;;;;;;15.25;19.34;99290.51;105143;1273;59611;-74
2022/03/31 11:42:44;;;;;;;9.50;2.70;;;;;;;14.95;19.75;99293.23;105123;1271;59573;-74
2022/03/31 11:45:45;;;;;;;6.80;2.70;;;;;;;14.62;20.06;99297.46;104417;1272;1003110;-74
2022/03/31 11:48:41;;;;;;;8.10;3.30;;;;;;;14.41;20.30;99296.48;105435;1271;68742;-75
2022/03/31 11:51:30;;;;;;;9.00;3.60;;;;;;;14.02;21.04;99292.49;105022;1273;71716;-75
2022/03/31 11:54:20;;;;;;;7.40;3.00;;;;;;;13.71;21.73;99295.64;105102;1271;59922;-74
2022/03/31 11:57:13;;;;;;;7.30;3.20;;;;;;;13.38;21.70;99299.16;105077;1271;59331;-75
2022/03/31 12:00:09;;;;;;;7.50;3.40;;;;;;;12.82;21.90;99297.58;105065;1273;73191;-75
2022/03/31 12:03:04;;;;;;;8.90;3.80;;;;;;;12.40;22.16;99290.55;105287;1271;68123;-75
2022/03/31 12:05:58;;;;;;;7.80;3.60;;;;;;;12.14;22.82;99285.22;105209;1271;73199;-75
2022/03/31 12:08:47;;;;;;;10.40;4.50;;;;;;;12.02;23.32;99292.06;105398;1273;59695;-75
2022/03/31 12:11:36;;;;;;;8.90;4.20;;;;;;;11.70;23.36;99291.48;104950;1272;60595;-75
2022/03/31 12:14:25;;;;;;;9.30;4.30;;;;;;;11.35;24.27;99287.45;105002;1271;73501;-73
2022/03/31 12:17:18;;;;;;;8.50;4.00;;;;;;;11.05;24.43;99279.96;105383;1271;68465;-74
2022/03/31 12:20:14;;;;;;;11.50;4.70;;;;;;;10.55;25.06;99281.79;105215;1271;72943;-74
2022/03/31 12:23:18;;;;;;;8.60;3.80;;;;;;;10.09;25.24;99282.82;105158;1271;59768;-74
2022/03/31 12:26:20;;;;;;;8.70;3.70;;;;;;;9.52;25.77;99285.83;105347;1271;60666;-73
2022/03/31 12:29:16;;;;;;;9.00;4.10;;;;;;;9.09;26.46;99285.23;105097;1271;73299;-73
2022/03/31 12:32:13;;;;;;;11.20;4.10;;;;;;;8.73;26.61;99274.52;105163;1272;66705;-73
2022/03/31 12:35:05;;;;;;;7.80;3.50;;;;;;;8.26;27.40;99276.58;104947;1271;73050;-73
2022/03/31 12:37:53;;;;;;;7.60;3.40;;;;;;;7.67;27.70;99287.40;105153;1271;59627;-72
2022/03/31 12:40:45;;;;;;;8.30;3.00;;;;;;;7.22;27.68;99285.52;105340;1272;60955;-74
2022/03/31 12:43:35;;;;;;;8.00;3.20;;;;;;;6.94;28.47;99283.17;105080;1271;73320;-74
2022/03/31 12:46:30;;;;;;;8.10;2.70;;;;;;;6.79;28.95;99285.36;105109;1271;67294;-73
2022/03/31 12:49:26;;;;;;;8.80;2.70;;;;;;;6.61;29.27;99290.43;105028;1273;71821;-74
2022/03/31 12:52:18;;;;;;;8.30;3.50;;;;;;;6.42;30.37;99296.20;105347;1273;60008;-75
2022/03/31 12:55:10;;;;;;;8.30;3.00;;;;;;;6.16;30.57;99295.74;105236;1274;59817;-73
2022/03/31 12:58:07;;;;;;;7.80;2.70;;;;;;;5.93;31.51;99303.69;105063;1273;72283;-74
2022/03/31 13:00:56;;;;;;;6.90;2.20;;;;;;;5.76;31.58;99302.61;104978;1273;68300;-74
2022/03/31 13:03:46;;;;;;;9.70;3.10;;;;;;;5.60;31.24;99301.42;104916;1273;73333;-74
2022/03/31 13:06:40;;;;;;;16.10;4.90;;;;;;;5.56;31.41;99308.91;104829;1273;59777;-73
2022/03/31 13:09:29;;;;;;;16.40;4.30;;;;;;;5.57;31.07;99300.17;105048;1273;60900;-73
2022/03/31 13:12:18;;;;;;;16.30;4.30;;;;;;;5.53;31.52;99304.56;104898;1273;73748;-73
2022/03/31 13:15:12;;;;;;;14.10;4.10;;;;;;;5.44;32.23;99307.59;104877;1273;68289;-74
2022/03/31 13:18:05;;;;;;;8.60;2.50;;;;;;;5.35;33.59;99308.91;105167;1274;73380;-75
2022/03/31 13:20:54;;;;;;;12.00;3.10;;;;;;;5.28;34.49;99310.64;105103;1273;59786;-72
2022/03/31 13:23:43;;;;;;;7.00;2.50;;;;;;;5.21;35.56;99306.20;105267;1271;59665;-75